sensor_id;sensor_type;location;lat;lon;timestamp;pressure;altitude;pressure_sealevel;temperature;humidity
10176;BME280;18221;38.704;0.152;2023-06-26T00:01:49;99151.56;;;30.07;38.05
10176;BME280;18221;38.704;0.152;2023-06-26T00:04:17;99143.09;;;30.09;37.84
10176;BME280;18221;38.704;0.152;2023-06-26T00:06:46;99132.38;;;30.07;37.73
10176;BME280;18221;38.704;0.152;2023-06-26T00:09:14;99132.94;;;30.09;38.03
10176;BME280;18221;38.704;0.152;2023-06-26T00:11:42;99129.41;;;30.09;38.12
10176;BME280;18221;38.704;0.152;2023-06-26T00:14:10;99138.38;;;30.04;37.91
10176;BME280;18221;38.704;0.152;2023-06-26T00:16:38;99131.88;;;30.10;37.39
10176;BME280;18221;38.704;0.152;2023-06-26T00:19:08;99132.44;;;30.12;37.67
10176;BME280;18221;38.704;0.152;2023-06-26T00:21:36;99127.25;;;30.16;37.38
10176;BME280;18221;38.704;0.152;2023-06-26T00:24:06;99134.13;;;30.18;37.58
10176;BME280;18221;38.704;0.152;2023-06-26T00:26:34;99137.38;;;30.15;37.79
10176;BME280;18221;38.704;0.152;2023-06-26T00:29:03;99139.00;;;30.11;37.67
10176;BME280;18221;38.704;0.152;2023-06-26T00:31:31;99138.41;;;30.09;37.31
10176;BME280;18221;38.704;0.152;2023-06-26T00:33:59;99133.53;;;30.11;37.35
10176;BME280;18221;38.704;0.152;2023-06-26T00:36:27;99142.81;;;30.10;37.34
10176;BME280;18221;38.704;0.152;2023-06-26T00:38:57;99129.06;;;30.00;37.30
10176;BME280;18221;38.704;0.152;2023-06-26T00:41:27;99130.41;;;29.98;37.24
10176;BME280;18221;38.704;0.152;2023-06-26T00:43:54;99125.50;;;30.00;37.00
10176;BME280;18221;38.704;0.152;2023-06-26T00:46:23;99126.59;;;30.04;36.92
10176;BME280;18221;38.704;0.152;2023-06-26T00:48:52;99126.91;;;30.07;36.12
10176;BME280;18221;38.704;0.152;2023-06-26T00:51:20;99121.13;;;30.04;35.91
10176;BME280;18221;38.704;0.152;2023-06-26T00:53:49;99127.44;;;30.04;36.04
10176;BME280;18221;38.704;0.152;2023-06-26T00:56:19;99120.88;;;30.05;36.04
10176;BME280;18221;38.704;0.152;2023-06-26T00:58:49;99115.72;;;30.09;36.47
10176;BME280;18221;38.704;0.152;2023-06-26T01:01:18;99122.47;;;30.01;36.18
10176;BME280;18221;38.704;0.152;2023-06-26T01:03:49;99120.31;;;30.03;36.51
10176;BME280;18221;38.704;0.152;2023-06-26T01:06:20;99128.53;;;30.03;36.04
10176;BME280;18221;38.704;0.152;2023-06-26T01:08:50;99126.34;;;30.05;36.36
10176;BME280;18221;38.704;0.152;2023-06-26T01:11:19;99117.56;;;29.98;36.76
10176;BME280;18221;38.704;0.152;2023-06-26T01:13:50;99114.81;;;29.98;37.32
10176;BME280;18221;38.704;0.152;2023-06-26T01:16:21;99112.59;;;29.95;37.90
10176;BME280;18221;38.704;0.152;2023-06-26T01:18:51;99108.16;;;29.89;38.62
10176;BME280;18221;38.704;0.152;2023-06-26T01:21:20;99107.59;;;29.87;39.51
10176;BME280;18221;38.704;0.152;2023-06-26T01:24:07;99099.13;;;29.88;39.58
10176;BME280;18221;38.704;0.152;2023-06-26T01:26:41;99101.34;;;29.91;40.10
10176;BME280;18221;38.704;0.152;2023-06-26T01:29:14;99098.34;;;29.93;40.47
10176;BME280;18221;38.704;0.152;2023-06-26T01:31:43;99101.34;;;29.91;40.51
10176;BME280;18221;38.704;0.152;2023-06-26T01:34:13;99099.06;;;29.83;41.42
10176;BME280;18221;38.704;0.152;2023-06-26T01:36:42;99099.34;;;29.82;42.27
10176;BME280;18221;38.704;0.152;2023-06-26T01:39:10;99096.34;;;29.83;42.35
10176;BME280;18221;38.704;0.152;2023-06-26T01:41:39;99098.53;;;29.81;42.51
10176;BME280;18221;38.704;0.152;2023-06-26T01:44:19;99099.06;;;29.83;43.11
10176;BME280;18221;38.704;0.152;2023-06-26T01:47:00;99093.56;;;29.78;43.35
10176;BME280;18221;38.704;0.152;2023-06-26T01:49:47;99088.56;;;29.75;43.47
10176;BME280;18221;38.704;0.152;2023-06-26T01:52:27;99093.78;;;29.72;42.93
10176;BME280;18221;38.704;0.152;2023-06-26T01:55:03;99076.25;;;29.73;42.67
10176;BME280;18221;38.704;0.152;2023-06-26T01:57:36;99075.41;;;29.72;42.22
10176;BME280;18221;38.704;0.152;2023-06-26T02:00:07;99064.19;;;29.69;41.93
10176;BME280;18221;38.704;0.152;2023-06-26T02:02:37;99064.72;;;29.71;41.40
10176;BME280;18221;38.704;0.152;2023-06-26T02:05:06;99070.44;;;29.64;40.30
10176;BME280;18221;38.704;0.152;2023-06-26T02:07:34;99085.75;;;29.65;40.41
10176;BME280;18221;38.704;0.152;2023-06-26T02:10:02;99079.50;;;29.70;40.16
10176;BME280;18221;38.704;0.152;2023-06-26T02:12:30;99066.66;;;29.70;40.56
10176;BME280;18221;38.704;0.152;2023-06-26T02:15:00;99066.34;;;29.67;39.98
10176;BME280;18221;38.704;0.152;2023-06-26T02:17:28;99063.06;;;29.70;40.43
10176;BME280;18221;38.704;0.152;2023-06-26T02:19:56;99067.47;;;29.71;40.18
10176;BME280;18221;38.704;0.152;2023-06-26T02:22:24;99062.53;;;29.68;39.40
10176;BME280;18221;38.704;0.152;2023-06-26T02:24:52;99065.78;;;29.65;39.20
10176;BME280;18221;38.704;0.152;2023-06-26T02:27:20;99075.66;;;29.66;39.30
10176;BME280;18221;38.704;0.152;2023-06-26T02:29:48;99069.84;;;29.62;39.03
10176;BME280;18221;38.704;0.152;2023-06-26T02:32:18;99064.41;;;29.67;39.11
10176;BME280;18221;38.704;0.152;2023-06-26T02:34:46;99070.13;;;29.61;38.52
10176;BME280;18221;38.704;0.152;2023-06-26T02:37:14;99065.72;;;29.60;38.89
10176;BME280;18221;38.704;0.152;2023-06-26T02:39:42;99060.88;;;29.67;38.69
10176;BME280;18221;38.704;0.152;2023-06-26T02:42:10;99064.22;;;29.74;38.44
10176;BME280;18221;38.704;0.152;2023-06-26T02:44:38;99055.41;;;29.67;38.77
10176;BME280;18221;38.704;0.152;2023-06-26T02:47:07;99058.72;;;29.69;38.89
10176;BME280;18221;38.704;0.152;2023-06-26T02:49:36;99061.69;;;29.67;38.83
10176;BME280;18221;38.704;0.152;2023-06-26T02:52:05;99051.41;;;29.48;40.24
10176;BME280;18221;38.704;0.152;2023-06-26T02:54:33;99060.78;;;29.57;39.68
10176;BME280;18221;38.704;0.152;2023-06-26T02:57:01;99056.97;;;29.58;40.03
10176;BME280;18221;38.704;0.152;2023-06-26T02:59:29;99050.59;;;29.47;40.56
10176;BME280;18221;38.704;0.152;2023-06-26T03:01:57;99037.47;;;29.49;40.80
10176;BME280;18221;38.704;0.152;2023-06-26T03:04:25;99042.97;;;29.54;40.64
10176;BME280;18221;38.704;0.152;2023-06-26T03:06:54;99046.53;;;29.55;41.33
10176;BME280;18221;38.704;0.152;2023-06-26T03:09:23;99055.84;;;29.54;41.39
10176;BME280;18221;38.704;0.152;2023-06-26T03:11:50;99049.03;;;29.56;41.69
10176;BME280;18221;38.704;0.152;2023-06-26T03:14:19;99046.88;;;29.63;41.63
10176;BME280;18221;38.704;0.152;2023-06-26T03:16:47;99049.84;;;29.57;41.33
10176;BME280;18221;38.704;0.152;2023-06-26T03:19:15;99040.56;;;29.58;41.71
10176;BME280;18221;38.704;0.152;2023-06-26T03:21:43;99043.84;;;29.60;41.74
10176;BME280;18221;38.704;0.152;2023-06-26T03:24:13;99039.47;;;29.59;41.42
10176;BME280;18221;38.704;0.152;2023-06-26T03:26:41;99035.13;;;29.63;41.23
10176;BME280;18221;38.704;0.152;2023-06-26T03:29:09;99025.00;;;29.63;41.26
10176;BME280;18221;38.704;0.152;2023-06-26T03:31:37;99020.03;;;29.60;41.03
10176;BME280;18221;38.704;0.152;2023-06-26T03:34:06;99011.31;;;29.63;41.18
10176;BME280;18221;38.704;0.152;2023-06-26T03:36:34;99000.81;;;29.50;41.49
10176;BME280;18221;38.704;0.152;2023-06-26T03:39:02;99000.00;;;29.50;41.05
10176;BME280;18221;38.704;0.152;2023-06-26T03:41:31;98993.16;;;29.52;41.29
10176;BME280;18221;38.704;0.152;2023-06-26T03:43:59;99002.50;;;29.56;41.12
10176;BME280;18221;38.704;0.152;2023-06-26T03:46:28;99001.09;;;29.49;41.01
10176;BME280;18221;38.704;0.152;2023-06-26T03:48:56;99003.25;;;29.47;41.06
10176;BME280;18221;38.704;0.152;2023-06-26T03:51:24;98998.56;;;29.42;41.11
10176;BME280;18221;38.704;0.152;2023-06-26T03:53:52;98989.53;;;29.42;40.95
10176;BME280;18221;38.704;0.152;2023-06-26T03:56:20;98983.78;;;29.38;41.48
10176;BME280;18221;38.704;0.152;2023-06-26T03:58:50;98982.66;;;29.39;41.16
10176;BME280;18221;38.704;0.152;2023-06-26T04:01:18;98973.94;;;29.42;41.49
10176;BME280;18221;38.704;0.152;2023-06-26T04:03:50;98978.03;;;29.40;41.42
10176;BME280;18221;38.704;0.152;2023-06-26T04:06:18;98981.75;;;29.28;41.96
10176;BME280;18221;38.704;0.152;2023-06-26T04:08:46;98988.84;;;29.24;41.63
10176;BME280;18221;38.704;0.152;2023-06-26T04:11:15;98989.41;;;29.26;41.94
10176;BME280;18221;38.704;0.152;2023-06-26T04:13:43;99000.22;;;29.16;41.37
10176;BME280;18221;38.704;0.152;2023-06-26T04:16:13;98989.22;;;29.06;40.62
10176;BME280;18221;38.704;0.152;2023-06-26T04:18:42;99001.78;;;29.07;40.72
10176;BME280;18221;38.704;0.152;2023-06-26T04:21:12;98995.19;;;29.03;40.55
10176;BME280;18221;38.704;0.152;2023-06-26T04:23:41;98985.97;;;29.09;40.28
10176;BME280;18221;38.704;0.152;2023-06-26T04:26:09;98981.66;;;28.92;39.80
10176;BME280;18221;38.704;0.152;2023-06-26T04:28:39;98975.72;;;29.00;39.67
10176;BME280;18221;38.704;0.152;2023-06-26T04:31:07;98977.22;;;29.12;39.75
10176;BME280;18221;38.704;0.152;2023-06-26T04:33:37;98985.16;;;29.14;39.47
10176;BME280;18221;38.704;0.152;2023-06-26T04:36:05;98990.44;;;29.20;39.27
10176;BME280;18221;38.704;0.152;2023-06-26T04:38:34;98979.38;;;29.10;38.53
10176;BME280;18221;38.704;0.152;2023-06-26T04:41:02;98968.97;;;29.07;38.54
10176;BME280;18221;38.704;0.152;2023-06-26T04:43:30;98964.88;;;29.10;37.57
10176;BME280;18221;38.704;0.152;2023-06-26T04:45:58;98953.38;;;29.08;38.33
10176;BME280;18221;38.704;0.152;2023-06-26T04:48:29;98943.88;;;29.15;38.29
10176;BME280;18221;38.704;0.152;2023-06-26T04:50:58;98939.25;;;29.16;39.06
10176;BME280;18221;38.704;0.152;2023-06-26T04:53:27;98935.94;;;29.14;39.00
10176;BME280;18221;38.704;0.152;2023-06-26T04:55:55;98919.59;;;29.19;39.15
10176;BME280;18221;38.704;0.152;2023-06-26T04:58:23;98900.72;;;29.17;39.15
10176;BME280;18221;38.704;0.152;2023-06-26T05:00:51;98889.00;;;29.22;38.82
10176;BME280;18221;38.704;0.152;2023-06-26T05:03:19;98880.00;;;29.26;38.15
10176;BME280;18221;38.704;0.152;2023-06-26T05:05:48;98880.59;;;29.33;38.46
10176;BME280;18221;38.704;0.152;2023-06-26T05:08:21;98882.84;;;29.42;38.53
10176;BME280;18221;38.704;0.152;2023-06-26T05:10:50;98894.63;;;29.47;39.72
10176;BME280;18221;38.704;0.152;2023-06-26T05:13:19;98905.53;;;29.37;40.97
10176;BME280;18221;38.704;0.152;2023-06-26T05:15:49;98913.72;;;29.37;41.78
10176;BME280;18221;38.704;0.152;2023-06-26T05:18:17;98925.50;;;29.38;41.84
10176;BME280;18221;38.704;0.152;2023-06-26T05:20:46;98944.53;;;29.22;42.70
10176;BME280;18221;38.704;0.152;2023-06-26T05:23:17;98955.91;;;29.14;43.41
10176;BME280;18221;38.704;0.152;2023-06-26T05:25:46;98954.81;;;29.15;43.26
10176;BME280;18221;38.704;0.152;2023-06-26T05:28:17;98946.09;;;29.18;43.25
10176;BME280;18221;38.704;0.152;2023-06-26T05:30:45;98952.16;;;29.20;43.12
10176;BME280;18221;38.704;0.152;2023-06-26T05:33:18;98943.72;;;29.22;42.84
10176;BME280;18221;38.704;0.152;2023-06-26T05:35:47;98954.41;;;29.28;42.41
10176;BME280;18221;38.704;0.152;2023-06-26T05:38:18;98957.72;;;29.30;42.43
10176;BME280;18221;38.704;0.152;2023-06-26T05:40:47;98971.31;;;29.20;42.39
10176;BME280;18221;38.704;0.152;2023-06-26T05:43:16;98974.28;;;29.19;42.38
10176;BME280;18221;38.704;0.152;2023-06-26T05:45:48;98978.75;;;29.25;42.05
10176;BME280;18221;38.704;0.152;2023-06-26T05:48:16;98979.63;;;29.30;41.84
10176;BME280;18221;38.704;0.152;2023-06-26T05:50:45;98986.28;;;29.18;41.75
10176;BME280;18221;38.704;0.152;2023-06-26T05:53:14;98986.81;;;29.15;41.78
10176;BME280;18221;38.704;0.152;2023-06-26T05:55:44;98984.34;;;29.13;41.29
10176;BME280;18221;38.704;0.152;2023-06-26T05:58:13;98996.34;;;29.12;41.00
10176;BME280;18221;38.704;0.152;2023-06-26T06:00:43;99002.31;;;29.04;40.81
10176;BME280;18221;38.704;0.152;2023-06-26T06:03:11;99009.13;;;29.02;40.92
10176;BME280;18221;38.704;0.152;2023-06-26T06:05:39;99014.28;;;28.98;40.67
10176;BME280;18221;38.704;0.152;2023-06-26T06:08:06;99026.34;;;29.02;40.53
10176;BME280;18221;38.704;0.152;2023-06-26T06:10:36;99021.75;;;29.08;40.46
10176;BME280;18221;38.704;0.152;2023-06-26T06:13:05;99025.88;;;29.10;40.73
10176;BME280;18221;38.704;0.152;2023-06-26T06:15:34;99025.34;;;29.13;40.77
10176;BME280;18221;38.704;0.152;2023-06-26T06:18:02;99025.91;;;29.15;40.82
10176;BME280;18221;38.704;0.152;2023-06-26T06:20:30;99036.97;;;29.25;40.46
10176;BME280;18221;38.704;0.152;2023-06-26T06:22:58;99038.72;;;29.10;39.27
10176;BME280;18221;38.704;0.152;2023-06-26T06:25:25;99039.84;;;29.14;39.63
10176;BME280;18221;38.704;0.152;2023-06-26T06:27:53;99048.19;;;29.24;40.01
10176;BME280;18221;38.704;0.152;2023-06-26T06:30:23;99056.94;;;29.26;40.09
10176;BME280;18221;38.704;0.152;2023-06-26T06:32:51;99074.75;;;29.28;39.66
10176;BME280;18221;38.704;0.152;2023-06-26T06:35:19;99068.31;;;29.18;39.27
10176;BME280;18221;38.704;0.152;2023-06-26T06:37:47;99074.72;;;29.23;39.03
10176;BME280;18221;38.704;0.152;2023-06-26T06:40:16;99081.28;;;29.22;38.81
10176;BME280;18221;38.704;0.152;2023-06-26T06:42:48;99083.00;;;29.33;38.84
10176;BME280;18221;38.704;0.152;2023-06-26T06:45:16;99088.00;;;29.42;38.41
10176;BME280;18221;38.704;0.152;2023-06-26T06:47:45;99092.09;;;29.39;38.41
10176;BME280;18221;38.704;0.152;2023-06-26T06:50:13;99088.56;;;29.44;38.29
10176;BME280;18221;38.704;0.152;2023-06-26T06:52:43;99094.88;;;29.44;38.61
10176;BME280;18221;38.704;0.152;2023-06-26T06:55:11;99103.44;;;29.53;38.52
10176;BME280;18221;38.704;0.152;2023-06-26T06:57:40;99110.63;;;29.59;38.76
10176;BME280;18221;38.704;0.152;2023-06-26T07:00:10;99116.06;;;29.54;38.64
10176;BME280;18221;38.704;0.152;2023-06-26T07:02:40;99115.81;;;29.60;38.86
10176;BME280;18221;38.704;0.152;2023-06-26T07:05:10;99123.88;;;29.72;38.48
10176;BME280;18221;38.704;0.152;2023-06-26T07:07:38;99126.63;;;29.72;38.77
10176;BME280;18221;38.704;0.152;2023-06-26T07:10:09;99129.22;;;29.88;38.38
10176;BME280;18221;38.704;0.152;2023-06-26T07:12:38;99132.53;;;29.90;38.26
10176;BME280;18221;38.704;0.152;2023-06-26T07:15:07;99136.97;;;29.96;38.39
10176;BME280;18221;38.704;0.152;2023-06-26T07:17:35;99133.75;;;30.05;38.25
10176;BME280;18221;38.704;0.152;2023-06-26T07:20:05;99139.81;;;30.12;37.97
10176;BME280;18221;38.704;0.152;2023-06-26T07:22:36;99140.06;;;30.05;37.86
10176;BME280;18221;38.704;0.152;2023-06-26T07:25:06;99138.47;;;30.14;37.33
10176;BME280;18221;38.704;0.152;2023-06-26T07:27:35;99148.19;;;30.32;37.19
10176;BME280;18221;38.704;0.152;2023-06-26T07:30:04;99144.72;;;30.41;36.04
10176;BME280;18221;38.704;0.152;2023-06-26T07:32:32;99145.56;;;30.47;35.74
10176;BME280;18221;38.704;0.152;2023-06-26T07:35:00;99143.22;;;30.71;35.88
10176;BME280;18221;38.704;0.152;2023-06-26T07:37:28;99145.44;;;30.69;36.01
10176;BME280;18221;38.704;0.152;2023-06-26T07:39:57;99141.56;;;30.70;35.73
10176;BME280;18221;38.704;0.152;2023-06-26T07:42:25;99134.47;;;30.74;35.54
10176;BME280;18221;38.704;0.152;2023-06-26T07:44:53;99138.09;;;30.84;35.52
10176;BME280;18221;38.704;0.152;2023-06-26T07:47:21;99134.59;;;30.94;35.52
10176;BME280;18221;38.704;0.152;2023-06-26T07:49:49;99135.97;;;30.96;35.04
10176;BME280;18221;38.704;0.152;2023-06-26T07:52:18;99144.19;;;30.91;35.54
10176;BME280;18221;38.704;0.152;2023-06-26T07:54:46;99144.44;;;30.95;35.10
10176;BME280;18221;38.704;0.152;2023-06-26T07:57:16;99144.69;;;30.88;35.54
10176;BME280;18221;38.704;0.152;2023-06-26T07:59:44;99144.13;;;30.86;35.91
10176;BME280;18221;38.704;0.152;2023-06-26T08:02:11;99149.81;;;30.75;36.46
10176;BME280;18221;38.704;0.152;2023-06-26T08:04:39;99145.97;;;30.71;36.77
10176;BME280;18221;38.704;0.152;2023-06-26T08:07:07;99142.09;;;30.67;38.35
10176;BME280;18221;38.704;0.152;2023-06-26T08:09:35;99141.47;;;30.49;39.51
10176;BME280;18221;38.704;0.152;2023-06-26T08:12:04;99138.34;;;30.83;39.26
10176;BME280;18221;38.704;0.152;2023-06-26T08:14:33;99145.41;;;31.36;39.42
10176;BME280;18221;38.704;0.152;2023-06-26T08:17:01;99144.94;;;31.89;37.81
10176;BME280;18221;38.704;0.152;2023-06-26T08:19:29;99140.16;;;32.80;36.96
10176;BME280;18221;38.704;0.152;2023-06-26T08:21:57;99142.16;;;33.78;35.19
10176;BME280;18221;38.704;0.152;2023-06-26T08:24:25;99134.47;;;34.08;33.82
10176;BME280;18221;38.704;0.152;2023-06-26T08:26:53;99144.84;;;34.74;33.90
10176;BME280;18221;38.704;0.152;2023-06-26T08:29:20;99147.41;;;35.55;32.42
10176;BME280;18221;38.704;0.152;2023-06-26T08:31:50;99153.59;;;35.66;31.41
10176;BME280;18221;38.704;0.152;2023-06-26T08:34:18;99158.06;;;35.24;32.04
10176;BME280;18221;38.704;0.152;2023-06-26T08:36:46;99157.56;;;35.60;31.94
10176;BME280;18221;38.704;0.152;2023-06-26T08:39:13;99143.47;;;36.12;31.23
10176;BME280;18221;38.704;0.152;2023-06-26T08:41:41;99144.09;;;36.55;30.17
10176;BME280;18221;38.704;0.152;2023-06-26T08:44:09;99153.97;;;37.02;29.18
10176;BME280;18221;38.704;0.152;2023-06-26T08:46:38;99150.03;;;37.44;28.59
10176;BME280;18221;38.704;0.152;2023-06-26T08:49:21;99141.69;;;37.80;28.23
10176;BME280;18221;38.704;0.152;2023-06-26T08:52:02;99141.56;;;38.29;26.81
10176;BME280;18221;38.704;0.152;2023-06-26T08:54:46;99137.34;;;39.02;25.66
10176;BME280;18221;38.704;0.152;2023-06-26T08:57:19;99130.97;;;38.93;25.71
10176;BME280;18221;38.704;0.152;2023-06-26T08:59:49;99133.66;;;39.32;25.10
10176;BME280;18221;38.704;0.152;2023-06-26T09:02:17;99131.53;;;39.20;25.20
10176;BME280;18221;38.704;0.152;2023-06-26T09:04:49;99137.00;;;38.55;25.98
10176;BME280;18221;38.704;0.152;2023-06-26T09:07:18;99133.34;;;37.93;26.72
10176;BME280;18221;38.704;0.152;2023-06-26T09:09:46;99135.91;;;36.91;28.24
10176;BME280;18221;38.704;0.152;2023-06-26T09:12:14;99134.34;;;36.12;29.48
10176;BME280;18221;38.704;0.152;2023-06-26T09:14:42;99134.75;;;35.30;31.02
10176;BME280;18221;38.704;0.152;2023-06-26T09:17:10;99130.53;;;34.72;32.13
10176;BME280;18221;38.704;0.152;2023-06-26T09:19:40;99143.44;;;34.24;33.81
10176;BME280;18221;38.704;0.152;2023-06-26T09:22:14;99137.97;;;33.85;34.07
10176;BME280;18221;38.704;0.152;2023-06-26T09:24:44;99143.72;;;33.50;34.69
10176;BME280;18221;38.704;0.152;2023-06-26T09:27:13;99143.78;;;33.35;35.05
10176;BME280;18221;38.704;0.152;2023-06-26T09:29:41;99161.28;;;33.00;32.34
10176;BME280;18221;38.704;0.152;2023-06-26T09:32:09;99167.63;;;33.01;31.66
10176;BME280;18221;38.704;0.152;2023-06-26T09:34:41;99160.22;;;32.86;33.04
10176;BME280;18221;38.704;0.152;2023-06-26T09:37:13;99169.53;;;33.00;34.88
10176;BME280;18221;38.704;0.152;2023-06-26T09:39:41;99176.72;;;32.91;35.03
10176;BME280;18221;38.704;0.152;2023-06-26T09:42:09;99182.28;;;32.76;34.69
10176;BME280;18221;38.704;0.152;2023-06-26T09:44:43;99165.53;;;32.47;36.17
10176;BME280;18221;38.704;0.152;2023-06-26T09:47:11;99177.69;;;32.06;36.94
10176;BME280;18221;38.704;0.152;2023-06-26T09:49:42;99184.00;;;32.21;37.72
10176;BME280;18221;38.704;0.152;2023-06-26T09:52:15;99176.84;;;32.15;37.85
10176;BME280;18221;38.704;0.152;2023-06-26T09:54:45;99184.00;;;32.06;38.21
10176;BME280;18221;38.704;0.152;2023-06-26T09:57:17;99174.63;;;31.77;36.91
10176;BME280;18221;38.704;0.152;2023-06-26T09:59:45;99184.22;;;31.80;37.02
10176;BME280;18221;38.704;0.152;2023-06-26T10:02:13;99185.59;;;31.82;36.68
10176;BME280;18221;38.704;0.152;2023-06-26T10:04:41;99179.28;;;31.97;36.23
10176;BME280;18221;38.704;0.152;2023-06-26T10:07:11;99172.16;;;31.91;36.93
10176;BME280;18221;38.704;0.152;2023-06-26T10:09:42;99171.63;;;31.99;37.43
10176;BME280;18221;38.704;0.152;2023-06-26T10:12:22;99169.16;;;32.02;36.69
10176;BME280;18221;38.704;0.152;2023-06-26T10:14:53;99183.72;;;32.03;36.85
10176;BME280;18221;38.704;0.152;2023-06-26T10:17:28;99180.94;;;31.98;36.38
10176;BME280;18221;38.704;0.152;2023-06-26T10:20:01;99174.06;;;31.65;36.38
10176;BME280;18221;38.704;0.152;2023-06-26T10:22:46;99183.38;;;31.64;37.51
10176;BME280;18221;38.704;0.152;2023-06-26T10:25:18;99176.53;;;31.71;38.50
10176;BME280;18221;38.704;0.152;2023-06-26T10:27:53;99182.00;;;31.71;39.08
10176;BME280;18221;38.704;0.152;2023-06-26T10:30:28;99180.34;;;31.70;39.87
10176;BME280;18221;38.704;0.152;2023-06-26T10:33:00;99185.31;;;31.78;40.65
10176;BME280;18221;38.704;0.152;2023-06-26T10:35:30;99176.00;;;31.90;39.78
10176;BME280;18221;38.704;0.152;2023-06-26T10:38:03;99184.53;;;32.03;38.22
10176;BME280;18221;38.704;0.152;2023-06-26T10:40:44;99186.75;;;32.01;38.78
10176;BME280;18221;38.704;0.152;2023-06-26T10:43:13;99185.91;;;32.06;39.46
10176;BME280;18221;38.704;0.152;2023-06-26T10:45:46;99195.25;;;32.00;39.60
10176;BME280;18221;38.704;0.152;2023-06-26T10:48:18;99190.88;;;32.14;38.95
10176;BME280;18221;38.704;0.152;2023-06-26T10:50:48;99180.41;;;32.21;37.68
10176;BME280;18221;38.704;0.152;2023-06-26T10:53:23;99177.09;;;31.89;38.38
10176;BME280;18221;38.704;0.152;2023-06-26T10:55:59;99169.94;;;31.98;38.41
10176;BME280;18221;38.704;0.152;2023-06-26T10:58:33;99169.69;;;31.99;38.17
10176;BME280;18221;38.704;0.152;2023-06-26T11:01:22;99168.03;;;31.88;38.14
10176;BME280;18221;38.704;0.152;2023-06-26T11:04:04;99168.88;;;31.94;38.39
10176;BME280;18221;38.704;0.152;2023-06-26T11:06:34;99177.13;;;32.09;38.23
10176;BME280;18221;38.704;0.152;2023-06-26T11:09:09;99170.50;;;32.15;38.13
10176;BME280;18221;38.704;0.152;2023-06-26T11:11:59;99175.75;;;32.21;38.28
10176;BME280;18221;38.704;0.152;2023-06-26T11:14:32;99170.25;;;32.06;38.19
10176;BME280;18221;38.704;0.152;2023-06-26T11:17:04;99168.91;;;32.04;39.14
10176;BME280;18221;38.704;0.152;2023-06-26T11:19:32;99170.81;;;32.18;39.73
10176;BME280;18221;38.704;0.152;2023-06-26T11:22:04;99179.88;;;32.24;39.67
10176;BME280;18221;38.704;0.152;2023-06-26T11:24:33;99172.16;;;32.36;39.77
10176;BME280;18221;38.704;0.152;2023-06-26T11:27:04;99165.53;;;32.47;39.76
10176;BME280;18221;38.704;0.152;2023-06-26T11:29:33;99179.28;;;32.57;38.31
10176;BME280;18221;38.704;0.152;2023-06-26T11:32:04;99176.00;;;32.35;37.68
10176;BME280;18221;38.704;0.152;2023-06-26T11:34:34;99177.66;;;32.36;39.34
10176;BME280;18221;38.704;0.152;2023-06-26T11:37:04;99177.06;;;32.59;40.05
10176;BME280;18221;38.704;0.152;2023-06-26T11:39:33;99174.31;;;32.49;38.66
10176;BME280;18221;38.704;0.152;2023-06-26T11:42:02;99166.84;;;32.75;38.46
10176;BME280;18221;38.704;0.152;2023-06-26T11:44:32;99163.81;;;32.86;38.41
10176;BME280;18221;38.704;0.152;2023-06-26T11:47:07;99167.66;;;32.80;38.79
10176;BME280;18221;38.704;0.152;2023-06-26T11:49:37;99171.25;;;32.81;38.97
10176;BME280;18221;38.704;0.152;2023-06-26T11:52:06;99162.75;;;32.67;39.48
10176;BME280;18221;38.704;0.152;2023-06-26T11:54:34;99168.84;;;32.59;38.90
10176;BME280;18221;38.704;0.152;2023-06-26T11:57:03;99164.41;;;32.68;39.48
10176;BME280;18221;38.704;0.152;2023-06-26T11:59:36;99165.22;;;32.79;40.11
10176;BME280;18221;38.704;0.152;2023-06-26T12:02:07;99164.16;;;32.60;39.83
10176;BME280;18221;38.704;0.152;2023-06-26T12:04:37;99155.06;;;32.64;36.80
10176;BME280;18221;38.704;0.152;2023-06-26T12:07:07;99153.97;;;32.70;39.25
10176;BME280;18221;38.704;0.152;2023-06-26T12:09:40;99152.84;;;32.81;39.42
10176;BME280;18221;38.704;0.152;2023-06-26T12:12:13;99154.16;;;32.89;38.72
10176;BME280;18221;38.704;0.152;2023-06-26T12:14:42;99153.38;;;32.83;38.04
10176;BME280;18221;38.704;0.152;2023-06-26T12:17:12;99141.91;;;32.56;38.23
10176;BME280;18221;38.704;0.152;2023-06-26T12:19:44;99151.16;;;32.80;39.50
10176;BME280;18221;38.704;0.152;2023-06-26T12:22:14;99140.22;;;32.70;39.84
10176;BME280;18221;38.704;0.152;2023-06-26T12:24:43;99138.03;;;32.62;40.17
10176;BME280;18221;38.704;0.152;2023-06-26T12:27:17;99144.09;;;32.69;38.84
10176;BME280;18221;38.704;0.152;2023-06-26T12:29:51;99137.97;;;32.82;38.27
10176;BME280;18221;38.704;0.152;2023-06-26T12:32:22;99141.81;;;32.86;38.77
10176;BME280;18221;38.704;0.152;2023-06-26T12:34:51;99143.41;;;32.97;39.65
10176;BME280;18221;38.704;0.152;2023-06-26T12:37:19;99138.44;;;33.10;39.18
10176;BME280;18221;38.704;0.152;2023-06-26T12:39:49;99139.19;;;33.20;39.72
10176;BME280;18221;38.704;0.152;2023-06-26T12:42:22;99136.78;;;33.14;39.15
10176;BME280;18221;38.704;0.152;2023-06-26T12:44:51;99136.06;;;32.78;40.13
10176;BME280;18221;38.704;0.152;2023-06-26T12:47:25;99138.00;;;32.72;38.80
10176;BME280;18221;38.704;0.152;2023-06-26T12:49:54;99135.56;;;32.66;39.09
10176;BME280;18221;38.704;0.152;2023-06-26T12:52:24;99136.09;;;32.68;39.53
10176;BME280;18221;38.704;0.152;2023-06-26T12:54:54;99131.38;;;32.78;39.75
10176;BME280;18221;38.704;0.152;2023-06-26T12:57:24;99125.56;;;32.90;39.19
10176;BME280;18221;38.704;0.152;2023-06-26T12:59:53;99123.66;;;32.85;39.68
10176;BME280;18221;38.704;0.152;2023-06-26T13:02:21;99122.31;;;32.73;40.06
10176;BME280;18221;38.704;0.152;2023-06-26T13:04:48;99119.88;;;32.71;39.97
10176;BME280;18221;38.704;0.152;2023-06-26T13:07:16;99125.13;;;32.63;40.26
10176;BME280;18221;38.704;0.152;2023-06-26T13:09:44;99125.31;;;32.81;40.08
10176;BME280;18221;38.704;0.152;2023-06-26T13:12:14;99122.28;;;32.83;39.62
10176;BME280;18221;38.704;0.152;2023-06-26T13:14:43;99116.28;;;32.76;37.94